Overview Statistics Trail Chart Weather Telemetry Raw packets
 

This is the latest recevied weather packets stored in our database for station/object WX5RP. If no packets are shown the sender has not sent any weather packets the latest 10 day(s).

<< 1 2 3 4 5 6 >>
Time Temp. Humidity Pressure Rain* Wind** Luminosity Snow
1777959320 14.44° C 36% 1011.1 hPa 0 mm - 0 W/m² -
1777958716 15.56° C 33% 1010.9 hPa 0 mm - 0 W/m² -
1777958117 15.56° C 33% 1010.9 hPa 0 mm - 0 W/m² -
1777957517 15.56° C 35% 1011.3 hPa 0 mm - 0 W/m² -
1777956917 15.56° C 38% 1011.4 hPa 0 mm - 0 W/m² -
1777956316 15° C 42% 1011.2 hPa 0 mm - 0 W/m² -
1777955716 14.44° C 45% 1010.5 hPa 0 mm - 0 W/m² -
1777955116 15.56° C 43% 1010.4 hPa 0 mm - 0 W/m² -
1777954516 15.56° C 42% 1010.1 hPa 0 mm - 0 W/m² -
1777953916 16.11° C 44% 1010.3 hPa 0 mm - 0 W/m² -
1777953316 16.67° C 39% 1009.9 hPa 0 mm - 0 W/m² -
1777952716 16.67° C 39% 1009.9 hPa 0 mm - 0 W/m² -
1777952116 17.22° C 38% 1009.1 hPa 0 mm - 0 W/m² -
1777951516 17.78° C 36% 1009 hPa 0 mm - 0 W/m² -
1777950916 17.78° C 36% 1008.7 hPa 0 mm - 0 W/m² -
1777950316 18.89° C 34% 1009.5 hPa 0 mm - 6 W/m² -
1777949716 18.89° C 33% 1009.1 hPa 0 mm - 12 W/m² -
1777949116 19.44° C 34% 1009.1 hPa 0 mm - 17 W/m² -
1777948516 20° C 31% 1008.8 hPa 0 mm - 26 W/m² -
1777947916 20.56° C 29% 1008.4 hPa 0 mm - 43 W/m² -
1777947316 20° C 31% 1008.1 hPa 0 mm - 58 W/m² -
1777946717 20.56° C 35% 1009.3 hPa 0 mm - 76 W/m² -
1777946116 20.56° C 34% 1009 hPa 0 mm - 135 W/m² -
1777945516 21.11° C 32% 1008.7 hPa 0 mm - 108 W/m² -
1777945304 21.11° C 32% 1008.4 hPa 0 mm - 122 W/m² -

* Rain latest hour (hover to see other rain measurements)
** Current wind speed in m/s (hover to see current wind gust speed)